createdAt,value
2023-01-02T00:00:00.280Z,99.0
2023-01-02T00:10:00.440Z,98.6
2023-01-02T00:20:00.231Z,96.7
2023-01-02T00:30:00.256Z,98.9
2023-01-02T00:40:00.262Z,99.2
2023-01-02T00:50:00.231Z,100.0
2023-01-02T01:00:00.297Z,100.0
2023-01-02T01:10:00.253Z,100.0
2023-01-02T01:20:00.425Z,100.0
2023-01-02T01:30:00.264Z,98.3
2023-01-02T01:40:00.257Z,96.5
2023-01-02T01:50:05.079Z,97.3
2023-01-02T02:00:00.280Z,98.3
2023-01-02T02:10:00.232Z,98.9
2023-01-02T02:20:00.221Z,99.5
2023-01-02T02:30:00.350Z,100.0
2023-01-02T02:40:00.269Z,100.0
2023-01-02T02:50:00.227Z,98.9
2023-01-02T03:00:00.282Z,98.8
2023-01-02T03:10:00.273Z,99.2
2023-01-02T03:20:00.260Z,99.7
2023-01-02T03:30:00.237Z,99.5
2023-01-02T03:40:00.327Z,99.3
2023-01-02T03:50:00.273Z,98.7
2023-01-02T04:00:00.322Z,98.6
2023-01-02T04:10:00.241Z,98.5
2023-01-02T04:20:00.235Z,98.4
2023-01-02T04:30:00.250Z,98.3
2023-01-02T04:40:00.430Z,98.5
2023-01-02T04:50:00.352Z,98.5
2023-01-02T05:00:00.276Z,98.3
2023-01-02T05:10:00.251Z,98.0
2023-01-02T05:20:00.243Z,98.2
2023-01-02T05:30:00.235Z,98.2
2023-01-02T05:40:00.257Z,98.0
2023-01-02T05:50:00.266Z,97.9
2023-01-02T06:00:00.425Z,97.8
2023-01-02T06:10:00.261Z,97.9
2023-01-02T06:20:00.253Z,97.9
2023-01-02T06:30:00.234Z,97.9
2023-01-02T06:40:00.301Z,97.9
2023-01-02T06:50:00.239Z,97.8
2023-01-02T07:00:00.350Z,98.1
2023-01-02T07:10:00.440Z,98.1
2023-01-02T07:20:02.216Z,97.5
2023-01-02T07:30:00.229Z,97.4
2023-01-02T07:40:00.260Z,97.6
2023-01-02T07:50:00.239Z,97.7
2023-01-02T08:00:00.276Z,97.6
2023-01-02T08:10:00.252Z,97.5
2023-01-02T08:20:06.909Z,97.6
2023-01-02T08:30:00.241Z,97.2
2023-01-02T08:40:00.244Z,97.0
2023-01-02T08:50:00.261Z,97.0
2023-01-02T09:00:00.301Z,97.0
2023-01-02T09:10:00.249Z,96.7
2023-01-02T09:20:00.256Z,96.4
2023-01-02T09:30:00.338Z,96.3
2023-01-02T09:40:00.254Z,96.7
2023-01-02T09:50:00.249Z,96.5
2023-01-02T10:00:00.325Z,96.5
2023-01-02T10:10:00.227Z,96.2
2023-01-02T10:20:00.240Z,96.6
2023-01-02T10:30:00.249Z,96.3
2023-01-02T10:40:00.436Z,95.8
2023-01-02T10:50:00.280Z,95.9
2023-01-02T11:00:00.291Z,95.9
2023-01-02T11:10:00.240Z,96.3
2023-01-02T11:20:00.261Z,96.3
2023-01-02T11:30:00.250Z,97.2
2023-01-02T11:40:00.419Z,95.3
2023-01-02T11:50:00.239Z,95.6
2023-01-02T12:00:00.316Z,95.6
2023-01-02T12:10:00.236Z,97.3
2023-01-02T12:20:05.120Z,97.5
2023-01-02T12:30:00.251Z,94.4
2023-01-02T12:40:00.243Z,94.8
2023-01-02T12:50:00.451Z,95.3
2023-01-02T13:00:00.265Z,95.7
2023-01-02T13:10:00.236Z,97.5
2023-01-02T13:20:00.226Z,95.7
2023-01-02T13:30:00.246Z,94.9
2023-01-02T13:40:00.234Z,94.3
2023-01-02T13:50:00.254Z,94.4
2023-01-02T14:00:00.298Z,94.5
2023-01-02T14:10:00.226Z,94.9
2023-01-02T14:20:00.216Z,95.4
2023-01-02T14:30:00.286Z,95.5
2023-01-02T14:40:00.318Z,96.1
2023-01-02T14:50:00.232Z,97.0
2023-01-02T15:00:00.293Z,96.3
2023-01-02T15:10:00.262Z,95.7
2023-01-02T15:20:00.246Z,96.2
2023-01-02T15:30:00.284Z,96.7
2023-01-02T15:40:00.253Z,97.1
2023-01-02T15:50:00.546Z,97.0
2023-01-02T16:00:00.682Z,97.1
2023-01-02T16:10:00.319Z,97.1
2023-01-02T16:20:00.782Z,97.4
2023-01-02T16:30:01.136Z,97.5
2023-01-02T16:40:00.595Z,97.4
2023-01-02T16:50:01.269Z,97.4
2023-01-02T17:00:00.485Z,97.7
2023-01-02T17:10:00.269Z,97.6
2023-01-02T17:20:00.240Z,97.3
2023-01-02T17:30:00.244Z,97.1
2023-01-02T17:40:00.398Z,97.4
2023-01-02T17:50:00.519Z,97.5
2023-01-02T18:00:00.765Z,97.2
2023-01-02T18:10:08.261Z,97.5
2023-01-02T18:20:00.658Z,97.4
2023-01-02T18:30:00.674Z,97.3
2023-01-02T18:40:00.624Z,97.1
2023-01-02T18:50:00.671Z,97.2
2023-01-02T19:00:00.858Z,97.0
2023-01-02T19:10:00.384Z,97.0
2023-01-02T19:20:00.321Z,97.7
2023-01-02T19:30:00.466Z,97.4
2023-01-02T19:40:00.272Z,96.8
2023-01-02T19:50:00.240Z,96.1
2023-01-02T20:00:00.269Z,95.4
2023-01-02T20:10:00.242Z,94.9
2023-01-02T20:20:00.239Z,95.0
2023-01-02T20:30:00.229Z,96.0
2023-01-02T20:40:00.270Z,96.9
2023-01-02T20:50:00.257Z,97.2
2023-01-02T21:00:00.466Z,96.2
2023-01-02T21:10:00.230Z,97.0
2023-01-02T21:20:00.221Z,97.5
2023-01-02T21:30:00.231Z,97.6
2023-01-02T21:40:00.261Z,97.5
2023-01-02T21:50:00.243Z,97.1
2023-01-02T22:00:00.261Z,96.6
2023-01-02T22:10:00.534Z,96.6
2023-01-02T22:20:00.745Z,96.2
2023-01-02T22:40:00.543Z,97.2
2023-01-02T22:50:00.685Z,96.5
2023-01-02T23:00:00.909Z,96.3
2023-01-02T23:10:00.641Z,96.6
2023-01-02T23:20:00.521Z,96.7
2023-01-02T23:30:00.331Z,97.0
2023-01-02T23:40:00.306Z,96.0
2023-01-02T23:50:00.249Z,95.1
